Time;durP1;ratioP1;P1;durP2;ratioP2;P2;SDS_P1;SDS_P2;PMS_P1;PMS_P2;Temp;Humidity;BMP_temperature;BMP_pressure;BME280_temperature;BME280_humidity;BME280_pressure;Samples;Min_cycle;Max_cycle;Signal;HPM_P1;HPM_P2
2023/03/18 00:01:21;;;;;;;11.55;6.95;;;10.90;99.90;;;;;;5055479;28;20084;-66
2023/03/18 00:03:47;;;;;;;10.00;6.03;;;11.00;99.90;;;;;;5054814;28;20087;-66
2023/03/18 00:06:15;;;;;;;8.57;5.95;;;11.00;99.90;;;;;;5054848;28;20067;-66
2023/03/18 00:08:44;;;;;;;7.05;5.38;;;11.00;99.90;;;;;;5055001;28;20481;-66
2023/03/18 00:11:11;;;;;;;8.98;5.13;;;10.90;99.90;;;;;;5054785;28;20078;-66
2023/03/18 00:13:38;;;;;;;6.72;5.28;;;10.90;99.90;;;;;;5037035;28;20053;-66
2023/03/18 00:16:05;;;;;;;9.13;5.45;;;11.00;99.90;;;;;;5055487;28;20128;-65
2023/03/18 00:18:33;;;;;;;8.02;4.35;;;10.90;99.90;;;;;;5021499;28;20057;-66
2023/03/18 00:20:59;;;;;;;7.13;4.68;;;11.00;99.90;;;;;;5054642;28;20049;-66
2023/03/18 00:23:26;;;;;;;9.15;4.95;;;11.00;99.90;;;;;;5054441;28;20036;-66
2023/03/18 00:25:55;;;;;;;8.95;5.30;;;10.90;99.90;;;;;;5054429;28;20103;-66
2023/03/18 00:28:22;;;;;;;6.72;4.68;;;10.90;99.90;;;;;;5054436;28;20049;-66
2023/03/18 00:30:50;;;;;;;7.25;4.90;;;10.90;99.90;;;;;;5054361;28;20088;-66
2023/03/18 00:33:16;;;;;;;6.97;4.35;;;10.90;99.90;;;;;;5054340;28;20049;-66
2023/03/18 00:35:44;;;;;;;6.60;4.68;;;11.00;99.90;;;;;;5054278;28;20099;-66
2023/03/18 00:38:19;;;;;;;8.50;4.43;;;10.90;99.90;;;;;;5054220;28;20131;-66
2023/03/18 00:41:09;;;;;;;5.97;4.25;;;11.00;99.90;;;;;;5054523;28;20123;-66
2023/03/18 00:43:44;;;;;;;7.82;4.72;;;11.00;99.90;;;;;;5037163;28;20063;-66
2023/03/18 00:46:11;;;;;;;7.47;4.25;;;10.90;99.90;;;;;;5055173;28;20052;-66
2023/03/18 00:48:37;;;;;;;6.30;4.32;;;11.00;99.90;;;;;;5045914;28;20057;-66
2023/03/18 00:51:04;;;;;;;5.55;3.92;;;11.00;99.90;;;;;;5055848;28;20049;-66
2023/03/18 00:53:30;;;;;;;5.88;4.00;;;10.90;99.90;;;;;;5039075;28;20481;-66
2023/03/18 00:55:55;;;;;;;7.82;4.72;;;10.90;99.90;;;;;;5061291;28;20106;-66
2023/03/18 00:58:21;;;;;;;6.03;4.03;;;11.00;99.90;;;;;;5063176;28;20049;-66
2023/03/18 01:00:47;;;;;;;8.10;4.20;;;11.00;99.90;;;;;;5064481;28;20093;-66
2023/03/18 01:03:13;;;;;;;8.40;4.07;;;11.00;99.90;;;;;;5057274;28;20053;-66
2023/03/18 01:05:39;;;;;;;6.30;4.00;;;11.00;99.90;;;;;;5053853;28;20056;-66
2023/03/18 01:08:04;;;;;;;5.55;4.30;;;11.00;99.90;;;;;;5053737;28;20384;-66
2023/03/18 01:10:30;;;;;;;7.22;4.28;;;10.90;99.90;;;;;;5035990;28;20504;-66
2023/03/18 01:12:57;;;;;;;8.02;4.72;;;11.00;99.90;;;;;;5053700;28;20049;-66
2023/03/18 01:15:23;;;;;;;5.90;4.57;;;11.00;99.90;;;;;;5053670;28;20045;-66
2023/03/18 01:17:53;;;;;;;7.60;4.38;;;11.00;99.90;;;;;;5054445;28;20351;-66
2023/03/18 01:20:19;;;;;;;9.43;4.55;;;11.00;99.90;;;;;;5053518;28;20041;-66
2023/03/18 01:22:45;;;;;;;6.57;4.78;;;11.00;99.90;;;;;;5053596;28;20106;-66
2023/03/18 01:25:14;;;;;;;5.68;4.72;;;11.00;99.90;;;;;;5053581;28;20428;-66
2023/03/18 01:27:40;;;;;;;6.80;5.05;;;10.90;99.90;;;;;;5053830;28;20080;-66
2023/03/18 01:30:08;;;;;;;7.63;4.65;;;11.00;99.90;;;;;;5053501;28;20088;-66
2023/03/18 01:32:34;;;;;;;8.68;5.47;;;11.00;99.90;;;;;;5053740;28;20056;-66
2023/03/18 01:35:00;;;;;;;6.72;4.88;;;11.10;99.90;;;;;;5053477;28;20056;-66
2023/03/18 01:37:27;;;;;;;7.25;5.18;;;10.90;99.90;;;;;;5054131;28;20053;-66
2023/03/18 01:39:54;;;;;;;7.97;5.57;;;10.80;99.90;;;;;;5053572;28;20120;-65
2023/03/18 01:42:21;;;;;;;9.95;6.30;;;10.90;99.90;;;;;;5054420;28;20045;-66
2023/03/18 01:44:47;;;;;;;8.98;6.10;;;10.80;99.90;;;;;;5062325;28;20204;-65
2023/03/18 01:47:16;;;;;;;10.25;5.88;;;10.80;99.90;;;;;;5062080;28;20450;-66
2023/03/18 01:49:48;;;;;;;9.30;5.82;;;10.70;99.90;;;;;;5036963;28;20056;-65
2023/03/18 01:52:23;;;;;;;10.00;5.90;;;10.70;99.90;;;;;;5053996;28;20088;-65
2023/03/18 01:55:01;;;;;;;9.18;6.40;;;10.70;99.90;;;;;;5053421;28;20098;-65
2023/03/18 01:57:29;;;;;;;8.27;6.28;;;10.70;99.90;;;;;;5053755;28;20060;-65
2023/03/18 01:59:56;;;;;;;9.55;6.20;;;10.60;99.90;;;;;;5053405;28;20047;-65
2023/03/18 02:02:23;;;;;;;8.60;6.40;;;10.60;99.90;;;;;;5053328;28;20115;-66
2023/03/18 02:04:50;;;;;;;10.43;7.00;;;10.50;99.90;;;;;;5039268;28;20119;-66
2023/03/18 02:07:23;;;;;;;10.77;7.18;;;10.60;99.90;;;;;;5058054;28;20439;-65
2023/03/18 02:09:50;;;;;;;12.30;7.68;;;10.60;99.90;;;;;;5057154;28;20091;-66
2023/03/18 02:12:26;;;;;;;10.45;7.90;;;10.50;99.90;;;;;;5057116;28;20068;-65
2023/03/18 02:14:53;;;;;;;10.73;7.00;;;10.50;99.90;;;;;;5057063;28;20485;-65
2023/03/18 02:17:23;;;;;;;13.00;8.35;;;10.50;99.90;;;;;;5057281;28;20040;-65
2023/03/18 02:20:11;;;;;;;12.73;8.50;;;10.30;99.90;;;;;;5057923;28;20049;-65
2023/03/18 02:22:44;;;;;;;14.45;9.55;;;10.40;99.90;;;;;;5056919;28;20048;-65
2023/03/18 02:25:28;;;;;;;;;;;10.30;99.90;;;;;;5057485;28;20119;-65
2023/03/18 02:27:59;;;;;;;15.35;10.40;;;10.30;99.90;;;;;;5039115;28;19951;-65
2023/03/18 02:30:36;;;;;;;15.60;9.95;;;10.40;99.90;;;;;;5057551;28;20052;-65
2023/03/18 02:33:02;;;;;;;13.15;10.50;;;10.40;99.90;;;;;;5038930;28;20060;-65
2023/03/18 02:35:29;;;;;;;13.68;10.13;;;10.30;99.90;;;;;;5057411;28;20088;-65
2023/03/18 02:37:55;;;;;;;14.18;9.75;;;10.40;99.90;;;;;;5056549;28;20088;-65
2023/03/18 02:40:27;;;;;;;12.23;10.50;;;10.20;99.90;;;;;;5056796;28;20072;-65
2023/03/18 02:42:53;;;;;;;13.65;9.05;;;10.20;99.90;;;;;;5038667;28;20417;-65
2023/03/18 02:45:41;;;;;;;15.38;10.50;;;10.20;99.90;;;;;;5056351;28;20119;-66
2023/03/18 02:48:11;;;;;;;14.20;10.60;;;10.10;99.90;;;;;;5056376;28;20045;-65
2023/03/18 02:50:37;;;;;;;13.80;10.70;;;10.10;99.90;;;;;;5039093;28;20041;-65
2023/03/18 02:53:04;;;;;;;12.98;10.23;;;10.20;99.90;;;;;;5056507;28;20128;-65
2023/03/18 02:55:30;;;;;;;16.60;11.52;;;10.00;99.90;;;;;;5039139;28;20084;-66
2023/03/18 02:57:56;;;;;;;15.73;11.05;;;9.20;99.90;;;;;;5056737;28;20083;-66
2023/03/18 03:00:22;;;;;;;13.48;10.65;;;10.00;99.90;;;;;;5056145;28;20045;-66
2023/03/18 03:02:47;;;;;;;15.85;11.85;;;9.90;99.90;;;;;;5056327;28;20119;-65
2023/03/18 03:05:14;;;;;;;20.27;12.10;;;9.90;99.90;;;;;;5056499;28;20492;-65
2023/03/18 03:07:40;;;;;;;15.32;11.43;;;9.80;99.90;;;;;;5038630;28;20382;-65
2023/03/18 03:10:07;;;;;;;14.25;11.43;;;9.80;99.90;;;;;;5055932;28;20056;-65
2023/03/18 03:12:33;;;;;;;15.70;12.93;;;9.80;99.90;;;;;;5038261;28;20049;-66
2023/03/18 03:14:59;;;;;;;18.92;13.02;;;9.70;99.90;;;;;;5055073;28;20041;-65
2023/03/18 03:17:25;;;;;;;18.20;13.52;;;9.60;99.90;;;;;;5055821;28;20049;-65
2023/03/18 03:19:51;;;;;;;21.70;15.15;;;9.60;99.90;;;;;;5055751;28;20056;-65
2023/03/18 03:22:17;;;;;;;18.88;13.35;;;9.60;99.90;;;;;;5056250;28;20045;-65
2023/03/18 03:24:43;;;;;;;18.60;14.50;;;9.70;99.90;;;;;;5038293;28;20041;-66
2023/03/18 03:27:10;;;;;;;18.10;13.75;;;9.60;99.90;;;;;;5055563;28;20106;-65
2023/03/18 03:29:35;;;;;;;18.90;14.23;;;9.70;99.90;;;;;;5056150;28;20362;-65
2023/03/18 03:32:01;;;;;;;21.27;14.43;;;9.50;99.90;;;;;;5055484;28;20071;-65
2023/03/18 03:34:27;;;;;;;21.30;15.90;;;9.50;99.90;;;;;;5055547;28;20049;-65
2023/03/18 03:36:53;;;;;;;21.33;15.48;;;9.70;99.90;;;;;;5055414;28;20377;-65
2023/03/18 03:39:18;;;;;;;21.08;16.17;;;9.60;99.90;;;;;;5055637;28;20087;-65
2023/03/18 03:41:44;;;;;;;21.30;15.38;;;9.50;99.90;;;;;;5037710;28;20049;-65
2023/03/18 03:44:10;;;;;;;20.48;16.25;;;9.50;99.90;;;;;;5055233;28;20044;-65
2023/03/18 03:46:36;;;;;;;21.85;16.35;;;9.60;99.90;;;;;;5055503;28;20075;-66
2023/03/18 03:49:02;;;;;;;21.17;15.30;;;9.60;99.90;;;;;;5055484;28;20115;-65
2023/03/18 03:51:28;;;;;;;19.08;15.35;;;9.70;99.90;;;;;;5055206;28;20170;-65
2023/03/18 03:53:54;;;;;;;19.13;14.85;;;9.60;99.90;;;;;;5037527;28;20546;-65
2023/03/18 03:56:20;;;;;;;21.77;15.75;;;9.60;99.90;;;;;;5054732;28;20064;-66
2023/03/18 03:58:46;;;;;;;19.75;15.80;;;9.60;99.90;;;;;;5055825;28;20048;-65
2023/03/18 04:01:12;;;;;;;22.67;15.98;;;9.70;99.90;;;;;;5037729;28;20051;-65
2023/03/18 04:03:37;;;;;;;21.23;15.07;;;9.70;99.90;;;;;;5054885;28;20044;-65
2023/03/18 04:06:03;;;;;;;20.13;15.70;;;10.00;99.90;;;;;;5020824;28;20045;-65
2023/03/18 04:08:30;;;;;;;19.35;14.77;;;9.70;99.90;;;;;;5054858;28;20045;-65
2023/03/18 04:10:56;;;;;;;20.80;15.32;;;9.70;99.90;;;;;;5054791;28;20063;-65
2023/03/18 04:13:23;;;;;;;22.25;15.98;;;9.80;99.90;;;;;;5054940;28;20044;-65
2023/03/18 04:15:49;;;;;;;20.50;15.05;;;9.80;99.90;;;;;;5054683;28;20056;-65
2023/03/18 04:18:15;;;;;;;22.15;14.32;;;9.70;99.90;;;;;;5055183;28;20041;-65
2023/03/18 04:20:42;;;;;;;24.90;16.15;;;9.70;99.90;;;;;;5054567;28;20080;-65
2023/03/18 04:23:08;;;;;;;22.20;14.95;;;9.80;99.90;;;;;;5037751;28;20408;-66
2023/03/18 04:25:34;;;;;;;23.20;16.30;;;9.70;99.90;;;;;;5054342;28;20051;-66
2023/03/18 04:28:00;;;;;;;21.10;15.40;;;9.70;99.90;;;;;;5054441;28;20045;-65
2023/03/18 04:30:26;;;;;;;19.63;15.57;;;9.80;99.90;;;;;;5054638;28;20552;-66
2023/03/18 04:32:53;;;;;;;22.05;16.10;;;9.70;99.90;;;;;;5054385;28;20051;-66
2023/03/18 04:35:20;;;;;;;22.77;15.65;;;9.80;99.90;;;;;;5054363;28;20040;-65
2023/03/18 04:37:46;;;;;;;24.85;17.30;;;9.70;99.90;;;;;;5054255;28;20539;-66
2023/03/18 04:40:12;;;;;;;24.27;16.83;;;9.60;99.90;;;;;;5054275;28;20053;-66
2023/03/18 04:42:38;;;;;;;24.23;16.88;;;9.50;99.90;;;;;;5020053;28;20056;-66
2023/03/18 04:45:05;;;;;;;25.30;17.60;;;9.60;99.90;;;;;;5037117;28;20100;-65
2023/03/18 04:47:32;;;;;;;21.02;15.43;;;9.60;99.90;;;;;;5037342;28;20049;-66
2023/03/18 04:49:58;;;;;;;21.70;16.60;;;9.40;99.90;;;;;;5054608;28;20049;-65
2023/03/18 04:52:24;;;;;;;22.77;16.38;;;9.50;99.90;;;;;;5053979;28;20045;-65
2023/03/18 04:54:50;;;;;;;26.00;18.00;;;9.70;99.90;;;;;;5053961;28;20041;-66
2023/03/18 04:57:17;;;;;;;22.45;15.75;;;9.60;99.90;;;;;;5032557;28;20378;-66
2023/03/18 04:59:44;;;;;;;24.00;16.02;;;9.30;99.90;;;;;;5034835;28;20061;-65
2023/03/18 05:02:10;;;;;;;19.17;15.55;;;9.50;99.90;;;;;;5034015;28;20052;-65
2023/03/18 05:04:36;;;;;;;21.27;16.13;;;9.40;99.90;;;;;;5033584;28;20120;-65
2023/03/18 05:07:02;;;;;;;21.90;16.38;;;9.40;99.90;;;;;;5033876;28;20568;-66
2023/03/18 05:09:28;;;;;;;23.80;15.20;;;9.40;99.90;;;;;;5033829;28;20132;-65
2023/03/18 05:11:53;;;;;;;22.75;16.05;;;9.40;99.90;;;;;;5033549;28;20053;-66
2023/03/18 05:14:19;;;;;;;21.30;15.80;;;9.40;99.90;;;;;;5033817;28;20076;-66
2023/03/18 05:16:45;;;;;;;22.08;15.57;;;9.40;99.90;;;;;;5033717;28;20049;-65
2023/03/18 05:19:11;;;;;;;21.65;15.35;;;9.40;99.90;;;;;;5033726;28;20096;-66
2023/03/18 05:21:37;;;;;;;25.00;16.90;;;9.40;99.90;;;;;;5033736;28;20045;-66
2023/03/18 05:24:03;;;;;;;23.60;16.83;;;9.30;99.90;;;;;;5033583;28;20092;-65
2023/03/18 05:26:29;;;;;;;21.23;15.80;;;9.30;99.90;;;;;;5032675;28;20049;-65
2023/03/18 05:28:56;;;;;;;25.17;16.67;;;9.50;99.90;;;;;;5033072;28;20476;-66
2023/03/18 05:31:21;;;;;;;23.88;16.77;;;9.40;99.90;;;;;;5032433;28;20473;-65
2023/03/18 05:33:47;;;;;;;23.38;16.92;;;9.40;99.90;;;;;;5032664;28;20179;-65
2023/03/18 05:36:13;;;;;;;25.48;17.15;;;9.40;99.90;;;;;;5016447;28;20053;-65
2023/03/18 05:38:39;;;;;;;27.30;17.88;;;9.60;99.90;;;;;;5033090;28;20473;-65
2023/03/18 05:41:06;;;;;;;24.15;16.95;;;9.50;99.90;;;;;;5033532;28;20045;-65
2023/03/18 05:43:31;;;;;;;21.85;16.30;;;9.40;99.90;;;;;;5033487;28;20132;-65
2023/03/18 05:45:57;;;;;;;25.77;17.10;;;9.50;99.90;;;;;;5033329;28;20148;-65
2023/03/18 05:48:23;;;;;;;25.42;16.52;;;9.50;99.90;;;;;;5032418;28;20053;-66
2023/03/18 05:50:49;;;;;;;24.98;17.35;;;9.60;99.90;;;;;;5034162;28;20045;-66
2023/03/18 05:53:15;;;;;;;23.08;16.67;;;9.60;99.90;;;;;;5033270;28;20045;-65
2023/03/18 05:55:42;;;;;;;24.95;17.85;;;9.50;99.90;;;;;;5033265;28;20049;-65
2023/03/18 05:58:08;;;;;;;24.35;17.38;;;9.70;99.90;;;;;;5051765;28;20059;-66
2023/03/18 06:00:36;;;;;;;26.88;17.67;;;9.60;99.90;;;;;;5053194;28;20049;-66
2023/03/18 06:03:02;;;;;;;23.80;16.63;;;9.60;99.90;;;;;;5053736;28;20057;-66
2023/03/18 06:05:29;;;;;;;24.33;16.23;;;9.70;99.90;;;;;;5053100;28;20388;-65
2023/03/18 06:07:56;;;;;;;22.90;16.92;;;9.70;99.90;;;;;;5053675;28;20182;-66
2023/03/18 06:10:24;;;;;;;21.50;15.70;;;9.60;99.90;;;;;;5053148;28;20060;-66
2023/03/18 06:12:50;;;;;;;23.70;16.98;;;9.70;99.90;;;;;;5053183;28;20053;-66
2023/03/18 06:15:17;;;;;;;23.65;16.15;;;9.70;99.90;;;;;;5053066;28;20051;-66
2023/03/18 06:17:43;;;;;;;21.92;15.40;;;9.70;99.90;;;;;;5035482;28;20047;-66
2023/03/18 06:20:10;;;;;;;22.55;15.90;;;9.80;99.90;;;;;;5035243;28;20045;-66
2023/03/18 06:22:37;;;;;;;20.77;14.40;;;9.70;99.90;;;;;;5053055;28;20057;-65
2023/03/18 06:25:06;;;;;;;23.13;16.77;;;9.70;99.90;;;;;;5034855;28;20503;-66
2023/03/18 06:27:32;;;;;;;20.80;15.15;;;9.70;99.90;;;;;;5035564;28;20065;-65
2023/03/18 06:30:01;;;;;;;25.52;16.77;;;9.70;99.90;;;;;;5052570;28;20555;-65
2023/03/18 06:32:28;;;;;;;23.27;15.63;;;9.80;99.90;;;;;;5052954;28;20048;-65
2023/03/18 06:34:55;;;;;;;22.80;15.85;;;9.90;99.90;;;;;;5035015;28;20099;-65
2023/03/18 06:37:21;;;;;;;25.92;17.17;;;9.70;99.90;;;;;;5053429;28;20436;-65
2023/03/18 06:39:48;;;;;;;23.55;16.08;;;9.80;99.90;;;;;;5052810;28;20500;-66
2023/03/18 06:42:14;;;;;;;24.45;16.80;;;9.90;99.90;;;;;;5036078;28;20047;-66
2023/03/18 06:44:43;;;;;;;25.52;17.45;;;9.90;99.90;;;;;;5053034;28;20041;-66
2023/03/18 06:47:09;;;;;;;21.73;15.63;;;10.00;99.90;;;;;;5035264;28;20057;-66
2023/03/18 06:49:35;;;;;;;25.95;16.13;;;9.90;99.90;;;;;;5036481;28;20059;-66
2023/03/18 06:52:01;;;;;;;24.08;15.93;;;9.80;99.90;;;;;;5058539;28;20049;-66
2023/03/18 06:54:27;;;;;;;26.23;17.33;;;9.80;99.90;;;;;;5025412;28;20049;-66
2023/03/18 06:56:53;;;;;;;26.70;17.83;;;9.90;99.90;;;;;;5058347;28;20067;-66
2023/03/18 06:59:22;;;;;;;22.58;16.70;;;9.90;99.90;;;;;;5057025;28;20146;-66
2023/03/18 07:01:48;;;;;;;26.65;18.10;;;9.90;99.90;;;;;;5056151;28;20048;-66
2023/03/18 07:04:14;;;;;;;24.40;17.65;;;10.00;99.90;;;;;;5056585;28;20389;-66
2023/03/18 07:06:39;;;;;;;23.77;17.75;;;9.90;99.90;;;;;;5056896;28;20054;-65
2023/03/18 07:09:05;;;;;;;26.48;17.23;;;9.90;99.90;;;;;;5039266;28;20377;-66
2023/03/18 07:11:31;;;;;;;24.33;17.38;;;10.00;99.90;;;;;;5055935;28;20049;-66
2023/03/18 07:13:56;;;;;;;24.20;16.65;;;10.10;99.90;;;;;;5055927;28;20124;-66
2023/03/18 07:16:22;;;;;;;23.63;17.23;;;10.10;99.90;;;;;;5038161;28;20052;-66
2023/03/18 07:18:48;;;;;;;23.77;17.15;;;10.10;99.90;;;;;;5055802;28;20075;-65
2023/03/18 07:21:15;;;;;;;24.38;16.58;;;10.10;99.90;;;;;;5056091;28;20072;-66
2023/03/18 07:23:41;;;;;;;23.88;15.68;;;10.20;99.90;;;;;;5038231;28;20048;-66
2023/03/18 07:26:07;;;;;;;22.27;15.85;;;10.20;99.90;;;;;;5056111;28;20052;-66
2023/03/18 07:28:33;;;;;;;23.70;16.48;;;10.20;99.90;;;;;;5057902;28;20051;-66
2023/03/18 07:30:59;;;;;;;22.13;16.13;;;10.20;99.90;;;;;;5041290;28;20045;-66
2023/03/18 07:33:25;;;;;;;25.02;16.13;;;10.30;99.90;;;;;;5059020;28;20068;-66
2023/03/18 07:35:51;;;;;;;22.33;16.73;;;10.20;99.90;;;;;;5059672;28;20041;-66
2023/03/18 07:38:17;;;;;;;22.30;15.93;;;10.30;99.90;;;;;;5040884;28;20085;-66
2023/03/18 07:40:43;;;;;;;23.20;16.17;;;10.20;99.90;;;;;;5040353;28;20045;-66
2023/03/18 07:43:09;;;;;;;27.02;16.17;;;10.20;99.90;;;;;;5057031;28;20392;-66
2023/03/18 07:45:34;;;;;;;24.15;17.25;;;10.30;99.90;;;;;;5055205;28;20081;-66
2023/03/18 07:48:00;;;;;;;25.30;18.05;;;10.40;99.90;;;;;;5056417;28;20098;-65
2023/03/18 07:50:26;;;;;;;25.17;17.15;;;10.30;99.90;;;;;;5056151;28;20047;-66
2023/03/18 07:52:52;;;;;;;23.55;17.65;;;10.30;99.90;;;;;;5055383;28;20129;-66
2023/03/18 07:55:19;;;;;;;21.80;16.67;;;10.30;99.90;;;;;;5055239;28;20052;-66
2023/03/18 07:57:45;;;;;;;25.23;17.67;;;10.40;99.90;;;;;;5055041;28;20088;-66
2023/03/18 08:00:12;;;;;;;27.58;18.55;;;10.40;99.90;;;;;;5055680;28;20057;-66
2023/03/18 08:02:38;;;;;;;25.58;16.75;;;10.50;99.90;;;;;;5054388;28;20501;-66
2023/03/18 08:05:05;;;;;;;24.27;17.27;;;10.50;99.90;;;;;;5037451;28;20072;-66
2023/03/18 08:07:32;;;;;;;24.98;18.25;;;10.50;99.90;;;;;;5038255;28;20045;-66
2023/03/18 08:09:58;;;;;;;24.42;16.98;;;10.60;99.90;;;;;;5054897;28;20080;-66
2023/03/18 08:12:24;;;;;;;26.65;17.05;;;10.60;99.90;;;;;;5037810;28;20089;-66
2023/03/18 08:14:50;;;;;;;24.70;17.50;;;10.80;99.90;;;;;;5055354;28;20048;-66
2023/03/18 08:17:16;;;;;;;23.42;17.33;;;10.80;99.90;;;;;;5054773;28;20041;-67
2023/03/18 08:19:42;;;;;;;26.15;17.55;;;10.90;99.90;;;;;;5055072;28;20401;-66
2023/03/18 08:22:08;;;;;;;25.52;17.45;;;10.90;99.90;;;;;;5054733;28;20051;-66
2023/03/18 08:24:36;;;;;;;26.90;18.58;;;10.90;99.90;;;;;;5054646;28;20044;-66
2023/03/18 08:27:02;;;;;;;26.27;18.55;;;10.90;99.90;;;;;;5054277;28;20055;-65
2023/03/18 08:29:27;;;;;;;23.98;18.17;;;10.90;99.90;;;;;;5054531;28;20452;-65
2023/03/18 08:31:53;;;;;;;24.58;16.85;;;11.00;99.90;;;;;;5053537;28;20045;-66
2023/03/18 08:34:19;;;;;;;19.90;15.95;;;11.00;99.90;;;;;;5054460;28;20492;-65
2023/03/18 08:36:45;;;;;;;21.98;16.55;;;10.90;99.90;;;;;;5054438;28;20132;-66
2023/03/18 08:39:11;;;;;;;21.15;16.75;;;10.90;99.90;;;;;;5054359;28;20088;-65
2023/03/18 08:41:37;;;;;;;20.38;15.85;;;11.00;99.90;;;;;;5054338;28;20049;-65
2023/03/18 08:44:06;;;;;;;22.52;15.65;;;11.20;99.90;;;;;;5054806;28;20052;-66
2023/03/18 08:46:32;;;;;;;23.77;16.05;;;11.00;99.90;;;;;;5054369;28;20045;-65
2023/03/18 08:48:58;;;;;;;21.58;15.65;;;11.00;99.90;;;;;;5054327;28;20051;-65
2023/03/18 08:51:24;;;;;;;21.17;15.82;;;11.00;99.90;;;;;;5054464;28;20080;-65
2023/03/18 08:53:50;;;;;;;21.98;16.23;;;11.00;99.90;;;;;;5054182;28;20048;-66
2023/03/18 08:56:16;;;;;;;21.38;16.40;;;11.10;99.90;;;;;;5053614;28;20136;-66
2023/03/18 08:58:45;;;;;;;21.55;15.65;;;11.20;99.90;;;;;;5054321;28;20061;-66
2023/03/18 09:01:11;;;;;;;22.83;16.23;;;11.20;99.90;;;;;;5054074;28;20045;-66
2023/03/18 09:03:37;;;;;;;19.83;15.88;;;11.20;99.90;;;;;;5054054;28;20060;-65
2023/03/18 09:06:03;;;;;;;22.48;16.00;;;11.30;99.90;;;;;;5036123;28;20044;-66
2023/03/18 09:08:29;;;;;;;21.23;16.73;;;11.30;99.90;;;;;;5053826;28;20138;-66
2023/03/18 09:10:57;;;;;;;23.63;16.30;;;11.40;99.90;;;;;;5054633;28;20119;-66
2023/03/18 09:13:23;;;;;;;21.67;16.02;;;11.50;99.90;;;;;;5053410;28;20550;-66
2023/03/18 09:15:49;;;;;;;21.77;15.73;;;11.50;99.90;;;;;;5053895;28;20159;-66
2023/03/18 09:18:17;;;;;;;19.52;15.63;;;11.60;99.90;;;;;;5053750;28;20494;-66
2023/03/18 09:20:44;;;;;;;22.73;16.23;;;11.50;99.90;;;;;;5035938;28;20084;-67
2023/03/18 09:23:11;;;;;;;23.38;16.38;;;11.70;99.90;;;;;;5053755;28;20044;-66
2023/03/18 09:25:37;;;;;;;22.08;16.65;;;11.80;99.90;;;;;;5035698;28;20396;-67
2023/03/18 09:28:03;;;;;;;21.05;15.93;;;11.70;99.90;;;;;;5035910;28;20078;-66
2023/03/18 09:30:30;;;;;;;19.73;16.13;;;11.80;99.90;;;;;;5035817;28;20447;-66
2023/03/18 09:32:56;;;;;;;23.88;15.95;;;11.70;99.90;;;;;;5053641;28;20053;-66
2023/03/18 09:35:23;;;;;;;21.13;16.13;;;11.80;99.90;;;;;;5053734;28;20473;-67
2023/03/18 09:37:48;;;;;;;21.83;15.98;;;11.90;99.90;;;;;;5053585;28;20080;-67
2023/03/18 09:40:26;;;;;;;20.85;14.77;;;11.90;99.90;;;;;;5053568;28;20080;-68
2023/03/18 09:43:17;;;;;;;22.50;16.27;;;12.00;99.90;;;;;;5053479;28;20091;-68
2023/03/18 09:46:19;;;;;;;23.63;16.58;;;12.10;99.90;;;;;;5053398;28;20041;-68
2023/03/18 09:49:18;;;;;;;23.70;16.17;;;12.10;99.90;;;;;;5053742;28;20052;-67
2023/03/18 09:51:50;;;;;;;22.45;15.90;;;12.10;99.90;;;;;;5053471;28;20055;-67
2023/03/18 09:54:27;;;;;;;19.77;15.53;;;12.20;99.90;;;;;;5036099;28;20064;-66
2023/03/18 09:56:54;;;;;;;20.40;16.20;;;12.30;99.90;;;;;;5052975;28;20060;-67
2023/03/18 09:59:39;;;;;;;22.15;17.05;;;12.20;99.90;;;;;;5053274;28;20049;-67
2023/03/18 10:02:19;;;;;;;20.02;16.77;;;12.30;99.90;;;;;;5053451;28;20086;-67
2023/03/18 10:05:11;;;;;;;22.90;16.50;;;12.30;99.90;;;;;;5053606;28;20060;-66
2023/03/18 10:07:42;;;;;;;20.98;17.05;;;12.40;99.90;;;;;;5053817;28;20392;-67
2023/03/18 10:10:18;;;;;;;24.30;18.05;;;12.40;99.90;;;;;;5054114;28;20076;-66
2023/03/18 10:12:51;;;;;;;24.08;17.35;;;12.40;99.90;;;;;;5053811;28;20094;-66
2023/03/18 10:15:23;;;;;;;21.65;18.75;;;12.40;99.90;;;;;;5053361;28;20063;-66
2023/03/18 10:18:16;;;;;;;23.05;18.73;;;12.40;99.90;;;;;;5036165;28;20052;-66
2023/03/18 10:21:00;;;;;;;25.95;18.48;;;12.50;99.90;;;;;;5053157;28;20045;-66
2023/03/18 10:24:03;;;;;;;23.58;17.60;;;12.60;99.90;;;;;;5053178;28;20053;-66
2023/03/18 10:26:45;;;;;;;22.50;17.52;;;12.70;99.90;;;;;;5056899;28;20045;-66
2023/03/18 10:29:45;;;;;;;24.80;18.42;;;12.70;99.90;;;;;;5056957;28;20049;-66
2023/03/18 10:32:27;;;;;;;25.48;18.70;;;12.70;99.90;;;;;;5057479;28;20052;-66
2023/03/18 10:35:00;;;;;;;23.02;18.98;;;12.70;99.90;;;;;;5057135;28;20037;-66
2023/03/18 10:37:50;;;;;;;24.55;18.90;;;12.70;99.90;;;;;;5056733;28;20053;-66
2023/03/18 10:40:18;;;;;;;23.92;18.40;;;12.90;99.90;;;;;;5042205;28;20102;-68
2023/03/18 10:42:45;;;;;;;26.08;19.35;;;12.80;99.90;;;;;;5056196;28;20092;-68
2023/03/18 10:45:34;;;;;;;24.38;19.17;;;12.70;99.90;;;;;;5056857;28;20115;-68
2023/03/18 10:48:09;;;;;;;24.38;18.48;;;12.80;99.90;;;;;;5028673;28;20057;-66
2023/03/18 10:50:50;;;;;;;24.23;18.73;;;12.90;99.90;;;;;;5056479;28;20041;-67
2023/03/18 10:53:26;;;;;;;22.73;18.70;;;12.90;99.90;;;;;;5056856;28;20051;-67
2023/03/18 10:56:09;;;;;;;27.85;19.88;;;13.00;99.90;;;;;;5056369;28;20133;-67
2023/03/18 10:58:37;;;;;;;25.08;19.13;;;13.00;99.90;;;;;;5056677;28;20578;-67
2023/03/18 11:01:08;;;;;;;23.13;19.92;;;13.00;99.90;;;;;;5056305;28;20408;-67
2023/03/18 11:03:40;;;;;;;25.00;19.15;;;13.10;99.90;;;;;;5038878;28;20053;-67
2023/03/18 11:06:15;;;;;;;24.75;18.73;;;13.10;99.90;;;;;;5056429;28;20080;-67
2023/03/18 11:08:41;;;;;;;28.05;20.08;;;13.10;99.90;;;;;;5056450;28;20045;-67
2023/03/18 11:11:14;;;;;;;28.17;19.50;;;13.10;99.90;;;;;;5056151;28;20048;-69
2023/03/18 11:13:48;;;;;;;;;;;13.10;99.90;;;;;;5039040;28;20058;-67
2023/03/18 11:16:22;;;;;;;26.38;20.05;;;13.10;99.90;;;;;;5038477;28;20303;-67
2023/03/18 11:18:50;;;;;;;25.27;18.65;;;13.00;99.90;;;;;;5056244;28;20052;-66
2023/03/18 11:21:16;;;;;;;24.88;19.52;;;13.00;99.90;;;;;;5038182;28;20045;-66
2023/03/18 11:24:09;;;;;;;25.25;20.25;;;13.10;99.90;;;;;;5021580;28;20055;-65
2023/03/18 11:26:51;;;;;;;27.00;19.00;;;13.10;99.90;;;;;;5055435;28;20124;-67
2023/03/18 11:29:23;;;;;;;26.73;19.60;;;13.30;99.90;;;;;;5056903;28;20052;-67
2023/03/18 11:31:56;;;;;;;28.67;18.67;;;13.20;99.90;;;;;;5055735;28;20052;-67
2023/03/18 11:34:23;;;;;;;21.65;16.42;;;13.30;99.90;;;;;;5055803;28;20120;-67
2023/03/18 11:37:10;;;;;;;24.85;17.60;;;13.40;99.90;;;;;;5054781;28;20080;-68
2023/03/18 11:39:39;;;;;;;20.90;16.30;;;13.50;99.90;;;;;;5037848;28;20115;-67
2023/03/18 11:42:21;;;;;;;20.83;16.02;;;13.80;99.90;;;;;;5055439;28;20045;-67
2023/03/18 11:44:53;;;;;;;19.55;14.77;;;13.70;99.90;;;;;;5037908;28;20072;-66
2023/03/18 11:47:26;;;;;;;19.20;14.63;;;13.70;99.90;;;;;;5055339;28;20055;-66
2023/03/18 11:49:51;;;;;;;14.80;11.38;;;13.80;99.90;;;;;;5055988;28;20389;-67
2023/03/18 11:52:39;;;;;;;17.10;12.60;;;13.90;99.90;;;;;;5055299;28;20047;-66
2023/03/18 11:55:29;;;;;;;19.70;13.60;;;13.90;99.90;;;;;;5020961;28;20063;-67
2023/03/18 11:58:24;;;;;;;19.05;13.88;;;13.90;99.90;;;;;;5055413;28;20119;-67
2023/03/18 12:00:58;;;;;;;19.67;13.18;;;14.00;99.90;;;;;;5037690;28;20123;-66
2023/03/18 12:03:57;;;;;;;18.33;12.85;;;14.00;99.90;;;;;;5055147;28;20053;-66
2023/03/18 12:06:29;;;;;;;18.15;12.55;;;14.00;99.90;;;;;;5055077;28;20041;-67
2023/03/18 12:09:09;;;;;;;17.23;12.93;;;14.00;99.90;;;;;;5055091;28;20132;-67
2023/03/18 12:11:58;;;;;;;14.85;10.75;;;13.90;99.90;;;;;;5037406;28;20056;-66
2023/03/18 12:14:44;;;;;;;15.43;11.57;;;14.00;99.90;;;;;;5027209;28;20071;-66
2023/03/18 12:17:39;;;;;;;16.60;11.93;;;13.90;99.90;;;;;;5038306;28;20041;-67
2023/03/18 12:20:17;;;;;;;13.98;10.00;;;14.10;99.90;;;;;;5037605;28;20084;-67
2023/03/18 12:23:01;;;;;;;13.60;9.88;;;14.00;99.90;;;;;;5059309;28;20045;-67
2023/03/18 12:25:53;;;;;;;14.13;10.32;;;14.30;99.90;;;;;;5055728;28;20036;-67
2023/03/18 12:28:31;;;;;;;13.82;10.15;;;14.20;99.90;;;;;;5055282;28;20045;-67
2023/03/18 12:31:25;;;;;;;15.55;10.82;;;14.20;99.90;;;;;;5055124;28;20057;-67
2023/03/18 12:33:57;;;;;;;16.90;11.30;;;14.30;99.90;;;;;;5037171;28;20343;-67
2023/03/18 12:36:44;;;;;;;13.87;10.33;;;14.20;99.90;;;;;;5055228;28;20071;-67
2023/03/18 12:39:28;;;;;;;14.93;11.13;;;14.20;99.90;;;;;;5036694;28;20087;-67
2023/03/18 12:42:07;;;;;;;15.35;10.35;;;14.10;99.90;;;;;;5037530;28;20419;-67
2023/03/18 12:45:04;;;;;;;14.85;10.30;;;14.20;99.90;;;;;;5037052;28;20049;-67
2023/03/18 12:47:32;;;;;;;12.30;10.43;;;14.30;99.90;;;;;;5053870;28;20048;-67